Terminal Aerodrome Forecast
Issued by NWS Charleston, WV

Current Version | Previous Version | Graphics & Text | Print | Product List | Glossary On
Versions: 1 2 3 4 5 6 7 8 9 10 11 12 13 14 15 16 17 18 19 20 21 22 23 24 25 26 27 28 29 30 31
000
FTUS41 KRLX 192100 AAA
TAFEKN
TAF AMD
KEKN 192100Z 1921/2018 29010KT P6SM FEW060
     FM200300 30007KT P6SM SCT050
     FM200700 30006KT 5SM BR SCT030
     FM200900 30005KT 2SM BR OVC010
     FM201200 30005KT 4SM BR OVC020
     FM201400 29006KT P6SM BKN200=

USA.gov is the U.S. government's official web portal to all federal, state and local government web resources and services.